Terminal Aerodrome Forecast
Issued by NWS

Current Version | Previous Version | Text Only | Print | Product List | Glossary On
Versions: 1 2 3 4 5 6 7 8 9 10 11 12 13 14
861
FTUS42 KGSP 281137
TAFAND
TAF
KAND 281137Z 2812/2912 24010KT P6SM -SHRA SCT060 BKN120
      TEMPO 2812/2814 VRB10G17KT 4SM TSRA OVC045CB
     FM281600 25012G20KT P6SM VCTS BKN060CB
     FM282100 24012G20KT P6SM BKN050 PROB30 2821/2824 4SM -TSRA
      OVC025CB
     FM290100 25008KT P6SM SCT050 BKN120
     FM290500 24004KT P6SM SCT120 BKN250=

USA.gov is the U.S. government's official web portal to all federal, state and local government web resources and services.